Time,TemperatureF,DewpointF,PressureIn,WindDirection,WindDirectionDegrees,WindSpeedMPH,WindSpeedGustMPH,Humidity,HourlyPrecipIn,Conditions,Clouds,dailyrainin,SoftwareType,DateUTC
2013-03-09 00:22:00,-999.0,-99.9,30.22,NE,50,9.0,13.0,-999,-99.99,,,-99.99,,2013-03-09 05:22:00,
2013-03-09 00:32:00,59.0,-99.9,30.22,North,-999,-999.0,-999.0,-999,-99.99,,,-99.99,,2013-03-09 05:32:00,
2013-03-09 00:43:00,59.0,-99.9,30.22,North,-999,-999.0,-999.0,-999,-99.99,,,-99.99,,2013-03-09 05:43:00,
2013-03-09 00:53:00,-999.0,-99.9,30.21,NE,53,8.0,11.0,-999,-99.99,,,-99.99,,2013-03-09 05:53:00,
2013-03-09 01:11:00,-999.0,-99.9,30.21,ENE,57,8.0,11.0,-999,-99.99,,,-99.99,,2013-03-09 06:11:00,
2013-03-09 01:22:00,-999.0,-99.9,30.21,ENE,77,7.0,9.0,-999,-99.99,,,-99.99,,2013-03-09 06:22:00,
2013-03-09 01:32:00,-999.0,-99.9,30.20,East,91,6.0,9.0,-999,-99.99,,,-99.99,,2013-03-09 06:32:00,
2013-03-09 01:42:00,-999.0,-99.9,30.21,East,92,4.0,7.0,-999,-99.99,,,-99.99,,2013-03-09 06:42:00,
2013-03-09 01:52:00,59.0,-99.9,30.20,North,-999,-999.0,-999.0,-999,-99.99,,,-99.99,,2013-03-09 06:52:00,
2013-03-09 02:01:00,59.0,-99.9,30.20,North,-999,-999.0,-999.0,-999,-99.99,,,-99.99,,2013-03-09 07:01:00,
2013-03-09 02:52:00,59.0,-99.9,30.19,North,-999,-999.0,-999.0,-999,-99.99,,,-99.99,,2013-03-09 07:52:00,
2013-03-09 03:01:00,59.0,-99.9,30.19,North,-999,-999.0,-999.0,-999,-99.99,,,-99.99,,2013-03-09 08:01:00,
2013-03-09 03:11:00,-999.0,-99.9,30.19,East,84,8.0,11.0,-999,-99.99,,,-99.99,,2013-03-09 08:11:00,
2013-03-09 03:22:00,59.0,-99.9,30.18,North,-999,-999.0,-999.0,-999,-99.99,,,-99.99,,2013-03-09 08:22:00,
2013-03-09 03:32:00,-999.0,-99.9,30.18,East,85,6.0,10.0,-999,-99.99,,,-99.99,,2013-03-09 08:32:00,
2013-03-09 03:42:00,59.0,-99.9,30.17,North,-999,-999.0,-999.0,-999,-99.99,,,-99.99,,2013-03-09 08:42:00,
2013-03-09 03:52:00,-999.0,-99.9,30.18,East,83,7.0,11.0,-999,-99.99,,,-99.99,,2013-03-09 08:52:00,
2013-03-09 04:12:00,-999.0,-99.9,30.18,ENE,78,6.0,10.0,-999,-99.99,,,-99.99,,2013-03-09 09:12:00,
2013-03-09 04:21:00,-999.0,-99.9,30.19,ENE,77,6.0,9.0,-999,-99.99,,,-99.99,,2013-03-09 09:21:00,
2013-03-09 04:42:00,-999.0,-99.9,30.19,ENE,78,7.0,11.0,-999,-99.99,,,-99.99,,2013-03-09 09:42:00,
2013-03-09 04:52:00,-999.0,-99.9,30.18,ENE,73,6.0,8.0,-999,-99.99,,,-99.99,,2013-03-09 09:52:00,
2013-03-09 05:01:00,-999.0,-99.9,30.18,ENE,71,4.0,8.0,-999,-99.99,,,-99.99,,2013-03-09 10:01:00,
2013-03-09 05:11:00,-999.0,-99.9,30.18,ENE,62,4.0,7.0,-999,-99.99,,,-99.99,,2013-03-09 10:11:00,
2013-03-09 05:22:00,58.0,-99.9,30.19,North,-999,-999.0,-999.0,-999,-99.99,,,-99.99,,2013-03-09 10:22:00,
2013-03-09 05:42:00,58.0,-99.9,30.19,North,-999,-999.0,-999.0,-999,-99.99,,,-99.99,,2013-03-09 10:42:00,
2013-03-09 05:52:00,57.0,-99.9,30.20,North,-999,-999.0,-999.0,-999,-99.99,,,-99.99,,2013-03-09 10:52:00,
2013-03-09 06:01:00,-999.0,-99.9,30.20,NE,55,5.0,9.0,-999,-99.99,,,-99.99,,2013-03-09 11:01:00,
2013-03-09 06:22:00,-999.0,-99.9,30.20,ENE,68,4.0,9.0,-999,-99.99,,,-99.99,,2013-03-09 11:22:00,
2013-03-09 06:32:00,57.0,-99.9,30.20,North,-999,-999.0,-999.0,-999,-99.99,,,-99.99,,2013-03-09 11:32:00,
2013-03-09 06:42:00,-999.0,-99.9,30.20,NE,56,6.0,10.0,-999,-99.99,,,-99.99,,2013-03-09 11:42:00,
2013-03-09 06:52:00,-999.0,-99.9,30.21,NE,49,5.0,10.0,-999,-99.99,,,-99.99,,2013-03-09 11:52:00,
2013-03-09 07:02:00,-999.0,-99.9,30.21,NE,55,4.0,9.0,-999,-99.99,,,-99.99,,2013-03-09 12:02:00,
2013-03-09 07:12:00,-999.0,-99.9,30.21,ENE,58,6.0,9.0,-999,-99.99,,,-99.99,,2013-03-09 12:12:00,
2013-03-09 07:22:00,57.0,-99.9,30.21,North,-999,-999.0,-999.0,-999,-99.99,,,-99.99,,2013-03-09 12:22:00,
2013-03-09 07:32:00,-999.0,-99.9,30.21,ENE,59,6.0,9.0,-999,-99.99,,,-99.99,,2013-03-09 12:32:00,
2013-03-09 07:42:00,-999.0,-99.9,30.21,ENE,60,5.0,9.0,-999,-99.99,,,-99.99,,2013-03-09 12:42:00,
2013-03-09 07:52:00,58.0,-99.9,30.22,North,-999,-999.0,-999.0,-999,-99.99,,,-99.99,,2013-03-09 12:52:00,
2013-03-09 08:02:00,58.0,-99.9,30.22,North,-999,-999.0,-999.0,-999,-99.99,,,-99.99,,2013-03-09 13:02:00,
2013-03-09 08:11:00,-999.0,-99.9,30.23,ENE,57,5.0,9.0,-999,-99.99,,,-99.99,,2013-03-09 13:11:00,
2013-03-09 08:22:00,-999.0,-99.9,30.23,ENE,60,5.0,8.0,-999,-99.99,,,-99.99,,2013-03-09 13:22:00,
2013-03-09 08:42:00,-999.0,-99.9,30.23,ENE,64,6.0,9.0,-999,-99.99,,,-99.99,,2013-03-09 13:42:00,
2013-03-09 08:52:00,59.0,-99.9,30.23,North,-999,-999.0,-999.0,-999,-99.99,,,-99.99,,2013-03-09 13:52:00,
2013-03-09 09:01:00,59.0,-99.9,30.23,North,-999,-999.0,-999.0,-999,-99.99,,,-99.99,,2013-03-09 14:01:00,
2013-03-09 09:11:00,-999.0,-99.9,30.24,ENE,77,8.0,10.0,-999,-99.99,,,-99.99,,2013-03-09 14:11:00,
2013-03-09 09:22:00,-999.0,-99.9,30.24,ENE,71,5.0,11.0,-999,-99.99,,,-99.99,,2013-03-09 14:22:00,
2013-03-09 09:32:00,-999.0,-99.9,30.24,ENE,65,4.0,8.0,-999,-99.99,,,-99.99,,2013-03-09 14:32:00,
2013-03-09 09:42:00,60.0,-99.9,30.24,North,-999,-999.0,-999.0,-999,-99.99,,,-99.99,,2013-03-09 14:42:00,
2013-03-09 09:52:00,-999.0,-99.9,30.24,ENE,76,7.0,11.0,-999,-99.99,,,-99.99,,2013-03-09 14:52:00,
2013-03-09 10:02:00,-999.0,-99.9,30.24,ENE,74,5.0,12.0,-999,-99.99,,,-99.99,,2013-03-09 15:02:00,
2013-03-09 10:22:00,-999.0,-99.9,30.24,East,79,7.0,10.0,-999,-99.99,,,-99.99,,2013-03-09 15:22:00,
2013-03-09 10:32:00,-999.0,-99.9,30.24,East,79,6.0,10.0,-999,-99.99,,,-99.99,,2013-03-09 15:32:00,
2013-03-09 10:42:00,63.0,-99.9,30.25,North,-999,-999.0,-999.0,-999,-99.99,,,-99.99,,2013-03-09 15:42:00,
2013-03-09 10:52:00,-999.0,-99.9,30.25,East,79,6.0,9.0,-999,-99.99,,,-99.99,,2013-03-09 15:52:00,
2013-03-09 11:02:00,-999.0,-99.9,30.24,ENE,75,6.0,9.0,-999,-99.99,,,-99.99,,2013-03-09 16:02:00,
2013-03-09 11:22:00,-999.0,-99.9,30.24,ENE,72,5.0,8.0,-999,-99.99,,,-99.99,,2013-03-09 16:22:00,
2013-03-09 11:32:00,-999.0,-99.9,30.25,ENE,66,3.0,7.0,-999,-99.99,,,-99.99,,2013-03-09 16:32:00,
2013-03-09 11:42:00,66.0,-99.9,30.24,North,-999,-999.0,-999.0,-999,-99.99,,,-99.99,,2013-03-09 16:42:00,
2013-03-09 11:52:00,67.0,-99.9,30.24,North,-999,-999.0,-999.0,-999,-99.99,,,-99.99,,2013-03-09 16:52:00,
2013-03-09 12:01:00,-999.0,-99.9,30.23,ENE,72,4.0,6.0,-999,-99.99,,,-99.99,,2013-03-09 17:01:00,
2013-03-09 12:22:00,-999.0,-99.9,30.23,NE,52,5.0,7.0,-999,-99.99,,,-99.99,,2013-03-09 17:22:00,
2013-03-09 12:32:00,-999.0,-99.9,30.22,NE,49,5.0,8.0,-999,-99.99,,,-99.99,,2013-03-09 17:32:00,
2013-03-09 12:42:00,-999.0,-99.9,30.22,NE,45,4.0,7.0,-999,-99.99,,,-99.99,,2013-03-09 17:42:00,
2013-03-09 12:52:00,69.0,-99.9,30.22,North,-999,-999.0,-999.0,-999,-99.99,,,-99.99,,2013-03-09 17:52:00,
2013-03-09 13:02:00,-999.0,-99.9,30.22,NE,51,4.0,8.0,-999,-99.99,,,-99.99,,2013-03-09 18:02:00,
2013-03-09 13:11:00,-999.0,-99.9,30.22,ENE,61,4.0,7.0,-999,-99.99,,,-99.99,,2013-03-09 18:11:00,
2013-03-09 13:22:00,70.0,-99.9,30.21,North,-999,-999.0,-999.0,-999,-99.99,,,-99.99,,2013-03-09 18:22:00,
2013-03-09 13:42:00,-999.0,-99.9,30.19,NE,39,4.0,8.0,-999,-99.99,,,-99.99,,2013-03-09 18:42:00,
2013-03-09 13:52:00,-999.0,-99.9,30.19,NE,38,4.0,9.0,-999,-99.99,,,-99.99,,2013-03-09 18:52:00,
2013-03-09 14:02:00,-999.0,-99.9,30.19,NNE,30,4.0,7.0,-999,-99.99,,,-99.99,,2013-03-09 19:02:00,
2013-03-09 14:22:00,71.0,-99.9,30.18,North,-999,-999.0,-999.0,-999,-99.99,,,-99.99,,2013-03-09 19:22:00,
2013-03-09 14:32:00,-999.0,-99.9,30.17,NE,37,4.0,6.0,-999,-99.99,,,-99.99,,2013-03-09 19:32:00,
2013-03-09 14:42:00,-999.0,-99.9,30.17,NE,44,3.0,7.0,-999,-99.99,,,-99.99,,2013-03-09 19:42:00,
2013-03-09 14:52:00,72.0,-99.9,30.17,North,-999,-999.0,-999.0,-999,-99.99,,,-99.99,,2013-03-09 19:52:00,
2013-03-09 15:02:00,-999.0,-99.9,30.17,NNE,32,4.0,7.0,-999,-99.99,,,-99.99,,2013-03-09 20:02:00,
2013-03-09 15:22:00,-999.0,-99.9,30.17,North,7,4.0,6.0,-999,-99.99,,,-99.99,,2013-03-09 20:22:00,
2013-03-09 15:32:00,-999.0,-99.9,30.17,NNE,32,4.0,6.0,-999,-99.99,,,-99.99,,2013-03-09 20:32:00,
2013-03-09 15:42:00,73.0,-99.9,30.17,North,-999,-999.0,-999.0,-999,-99.99,,,-99.99,,2013-03-09 20:42:00,
2013-03-09 15:52:00,-999.0,-99.9,30.17,NE,36,3.0,6.0,-999,-99.99,,,-99.99,,2013-03-09 20:52:00,
2013-03-09 16:02:00,73.0,-99.9,30.17,North,-999,-999.0,-999.0,-999,-99.99,,,-99.99,,2013-03-09 21:02:00,
2013-03-09 16:12:00,-999.0,-99.9,30.16,NE,45,3.0,6.0,-999,-99.99,,,-99.99,,2013-03-09 21:12:00,
2013-03-09 16:22:00,-999.0,-99.9,30.16,NE,50,3.0,5.0,-999,-99.99,,,-99.99,,2013-03-09 21:22:00,
2013-03-09 16:42:00,-999.0,-99.9,30.16,NE,46,4.0,6.0,-999,-99.99,,,-99.99,,2013-03-09 21:42:00,
2013-03-09 16:52:00,72.0,-99.9,30.16,North,-999,-999.0,-999.0,-999,-99.99,,,-99.99,,2013-03-09 21:52:00,
2013-03-09 17:01:00,-999.0,-99.9,30.16,NNE,30,3.0,8.0,-999,-99.99,,,-99.99,,2013-03-09 22:01:00,
2013-03-09 17:22:00,72.0,-99.9,30.16,North,-999,-999.0,-999.0,-999,-99.99,,,-99.99,,2013-03-09 22:22:00,
2013-03-09 17:32:00,-999.0,-99.9,30.16,NNE,26,4.0,7.0,-999,-99.99,,,-99.99,,2013-03-09 22:32:00,
2013-03-09 17:42:00,72.0,-99.9,30.16,North,-999,-999.0,-999.0,-999,-99.99,,,-99.99,,2013-03-09 22:42:00,
2013-03-09 17:52:00,-999.0,-99.9,30.16,NE,36,3.0,6.0,-999,-99.99,,,-99.99,,2013-03-09 22:52:00,
2013-03-09 18:01:00,-999.0,-99.9,30.16,NE,39,3.0,7.0,-999,-99.99,,,-99.99,,2013-03-09 23:01:00,
2013-03-09 18:22:00,-999.0,-99.9,30.16,NE,54,6.0,9.0,-999,-99.99,,,-99.99,,2013-03-09 23:22:00,
2013-03-09 18:32:00,-999.0,-99.9,30.16,NE,55,4.0,7.0,-999,-99.99,,,-99.99,,2013-03-09 23:32:00,
2013-03-09 18:42:00,-999.0,-99.9,30.17,NE,56,5.0,8.0,-999,-99.99,,,-99.99,,2013-03-09 23:42:00,
2013-03-09 18:52:00,70.0,-99.9,30.17,North,-999,-999.0,-999.0,-999,-99.99,,,-99.99,,2013-03-09 23:52:00,
2013-03-09 19:02:00,-999.0,-99.9,30.18,NNW,348,6.0,9.0,-999,-99.99,,,-99.99,,2013-03-10 00:02:00,
2013-03-09 19:22:00,-999.0,-99.9,30.18,NNW,341,5.0,9.0,-999,-99.99,,,-99.99,,2013-03-10 00:22:00,
2013-03-09 19:43:00,67.0,-99.9,30.19,North,-999,-999.0,-999.0,-999,-99.99,,,-99.99,,2013-03-10 00:43:00,
2013-03-09 19:52:00,-999.0,-99.9,30.19,North,357,6.0,9.0,-999,-99.99,,,-99.99,,2013-03-10 00:52:00,
2013-03-09 20:01:00,-999.0,-99.9,30.19,North,355,5.0,8.0,-999,-99.99,,,-99.99,,2013-03-10 01:01:00,
2013-03-09 20:11:00,-999.0,-99.9,30.20,North,352,5.0,7.0,-999,-99.99,,,-99.99,,2013-03-10 01:11:00,
2013-03-09 20:22:00,66.0,-99.9,30.20,North,-999,-999.0,-999.0,-999,-99.99,,,-99.99,,2013-03-10 01:22:00,
2013-03-09 20:32:00,-999.0,-99.9,30.19,North,0,6.0,11.0,-999,-99.99,,,-99.99,,2013-03-10 01:32:00,
2013-03-09 20:42:00,-999.0,-99.9,30.19,North,351,6.0,9.0,-999,-99.99,,,-99.99,,2013-03-10 01:42:00,
2013-03-09 20:52:00,-999.0,-99.9,30.19,NNW,346,6.0,10.0,-999,-99.99,,,-99.99,,2013-03-10 01:52:00,
2013-03-09 21:01:00,65.0,-99.9,30.19,North,-999,-999.0,-999.0,-999,-99.99,,,-99.99,,2013-03-10 02:01:00,
2013-03-09 21:22:00,-999.0,-99.9,30.20,NE,37,5.0,12.0,-999,-99.99,,,-99.99,,2013-03-10 02:22:00,
2013-03-09 21:42:00,64.0,-99.9,30.20,North,-999,-999.0,-999.0,-999,-99.99,,,-99.99,,2013-03-10 02:42:00,
2013-03-09 21:52:00,-999.0,-99.9,30.20,East,90,5.0,10.0,-999,-99.99,,,-99.99,,2013-03-10 02:52:00,
2013-03-09 22:02:00,64.0,-99.9,30.21,North,-999,-999.0,-999.0,-999,-99.99,,,-99.99,,2013-03-10 03:02:00,
2013-03-09 22:22:00,-999.0,-99.9,30.21,East,96,5.0,8.0,-999,-99.99,,,-99.99,,2013-03-10 03:22:00,
2013-03-09 22:32:00,-999.0,-99.9,30.22,ESE,102,4.0,8.0,-999,-99.99,,,-99.99,,2013-03-10 03:32:00,
2013-03-09 22:52:00,-999.0,-99.9,30.21,ESE,106,4.0,7.0,-999,-99.99,,,-99.99,,2013-03-10 03:52:00,
2013-03-09 23:11:00,-999.0,-99.9,30.21,East,98,5.0,11.0,-999,-99.99,,,-99.99,,2013-03-10 04:11:00,
2013-03-09 23:22:00,63.0,-99.9,30.21,North,-999,-999.0,-999.0,-999,-99.99,,,-99.99,,2013-03-10 04:22:00,
2013-03-09 23:32:00,63.0,-99.9,30.21,North,-999,-999.0,-999.0,-999,-99.99,,,-99.99,,2013-03-10 04:32:00,
2013-03-09 23:42:00,63.0,-99.9,30.21,North,-999,-999.0,-999.0,-999,-99.99,,,-99.99,,2013-03-10 04:42:00,
2013-03-09 23:52:00,62.0,-99.9,30.21,North,-999,-999.0,-999.0,-999,-99.99,,,-99.99,,2013-03-10 04:52:00,